Terminal Aerodrome Forecast
Issued by NWS

Current Version | Previous Version | Graphics & Text | Print | Product List | Glossary On
Versions: 1 2 3 4 5 6 7 8 9 10 11 12 13 14 15 16 17 18
000
FTUS41 KPBZ 091121
TAFHLG
TAF
KHLG 091121Z 0912/1012 22006KT P6SM BKN250
     FM092100 26009KT P6SM OVC080
     FM100200 25006KT 6SM -SN OVC010
     FM100700 28012G18KT P6SM OVC010=

USA.gov is the U.S. government's official web portal to all federal, state and local government web resources and services.